sensor_id;sensor_type;location;lat;lon;timestamp;pressure;altitude;pressure_sealevel;temperature;humidity
56582;BME280;42463;52.214;21.238;2023-07-29T00:00:18;99573.30;;;18.91;76.42
56582;BME280;42463;52.214;21.238;2023-07-29T00:02:44;99577.40;;;18.91;76.69
56582;BME280;42463;52.214;21.238;2023-07-29T00:04:52;99581.54;;;18.92;76.72
56582;BME280;42463;52.214;21.238;2023-07-29T00:06:58;99583.48;;;18.94;76.84
56582;BME280;42463;52.214;21.238;2023-07-29T00:09:04;99581.20;;;18.94;76.75
56582;BME280;42463;52.214;21.238;2023-07-29T00:11:10;99585.92;;;18.94;76.62
56582;BME280;42463;52.214;21.238;2023-07-29T00:13:16;99584.57;;;18.93;76.64
56582;BME280;42463;52.214;21.238;2023-07-29T00:15:22;99590.20;;;18.93;76.63
56582;BME280;42463;52.214;21.238;2023-07-29T00:17:27;99590.19;;;18.93;76.59
56582;BME280;42463;52.214;21.238;2023-07-29T00:19:33;99588.92;;;18.93;76.70
56582;BME280;42463;52.214;21.238;2023-07-29T00:21:39;99592.40;;;18.93;76.71
56582;BME280;42463;52.214;21.238;2023-07-29T00:23:46;99592.14;;;18.92;76.64
56582;BME280;42463;52.214;21.238;2023-07-29T00:25:52;99595.95;;;18.92;76.51
56582;BME280;42463;52.214;21.238;2023-07-29T00:27:58;99596.73;;;18.92;76.63
56582;BME280;42463;52.214;21.238;2023-07-29T00:30:06;99598.58;;;18.92;76.76
56582;BME280;42463;52.214;21.238;2023-07-29T00:32:12;99600.42;;;18.91;76.78
56582;BME280;42463;52.214;21.238;2023-07-29T00:34:19;99599.78;;;18.91;76.61
56582;BME280;42463;52.214;21.238;2023-07-29T00:36:26;99603.95;;;18.91;76.73
56582;BME280;42463;52.214;21.238;2023-07-29T00:38:33;99602.48;;;18.92;76.76
56582;BME280;42463;52.214;21.238;2023-07-29T00:40:40;99603.23;;;18.93;76.75
56582;BME280;42463;52.214;21.238;2023-07-29T00:42:46;99604.88;;;18.93;76.72
56582;BME280;42463;52.214;21.238;2023-07-29T00:44:52;99607.56;;;18.93;76.57
56582;BME280;42463;52.214;21.238;2023-07-29T00:46:58;99606.66;;;18.92;76.60
56582;BME280;42463;52.214;21.238;2023-07-29T00:49:05;99609.17;;;18.93;76.69
56582;BME280;42463;52.214;21.238;2023-07-29T00:51:11;99609.20;;;18.93;76.61
56582;BME280;42463;52.214;21.238;2023-07-29T00:53:17;99613.35;;;18.93;76.51
56582;BME280;42463;52.214;21.238;2023-07-29T00:55:23;99612.70;;;18.92;76.53
56582;BME280;42463;52.214;21.238;2023-07-29T00:57:30;99617.04;;;18.93;76.57
56582;BME280;42463;52.214;21.238;2023-07-29T00:59:37;99616.91;;;18.92;76.33
56582;BME280;42463;52.214;21.238;2023-07-29T01:03:59;99615.65;;;18.91;76.69
56582;BME280;42463;52.214;21.238;2023-07-29T01:06:12;99616.75;;;18.91;76.62
56582;BME280;42463;52.214;21.238;2023-07-29T01:08:25;99618.50;;;18.90;76.55
56582;BME280;42463;52.214;21.238;2023-07-29T01:10:45;99622.09;;;18.90;76.57
56582;BME280;42463;52.214;21.238;2023-07-29T01:12:56;99620.58;;;18.89;76.70
56582;BME280;42463;52.214;21.238;2023-07-29T01:15:13;99618.52;;;18.88;76.32
56582;BME280;42463;52.214;21.238;2023-07-29T01:17:29;99620.58;;;18.87;76.25
56582;BME280;42463;52.214;21.238;2023-07-29T01:19:48;99624.59;;;18.86;76.31
56582;BME280;42463;52.214;21.238;2023-07-29T01:21:59;99622.38;;;18.83;76.08
56582;BME280;42463;52.214;21.238;2023-07-29T01:24:08;99626.13;;;18.81;75.96
56582;BME280;42463;52.214;21.238;2023-07-29T01:26:15;99627.81;;;18.80;76.13
56582;BME280;42463;52.214;21.238;2023-07-29T01:28:22;99629.40;;;18.78;76.02
56582;BME280;42463;52.214;21.238;2023-07-29T01:30:33;99630.15;;;18.76;75.80
56582;BME280;42463;52.214;21.238;2023-07-29T01:32:47;99631.84;;;18.73;75.90
56582;BME280;42463;52.214;21.238;2023-07-29T01:35:03;99638.09;;;18.71;76.01
56582;BME280;42463;52.214;21.238;2023-07-29T01:37:14;99640.36;;;18.69;75.89
56582;BME280;42463;52.214;21.238;2023-07-29T01:39:23;99639.27;;;18.67;75.71
56582;BME280;42463;52.214;21.238;2023-07-29T01:41:30;99640.45;;;18.66;75.61
56582;BME280;42463;52.214;21.238;2023-07-29T01:43:37;99637.66;;;18.63;75.52
56582;BME280;42463;52.214;21.238;2023-07-29T01:45:50;99641.73;;;18.61;75.54
56582;BME280;42463;52.214;21.238;2023-07-29T01:47:56;99643.52;;;18.60;75.41
56582;BME280;42463;52.214;21.238;2023-07-29T01:50:05;99645.65;;;18.58;75.34
56582;BME280;42463;52.214;21.238;2023-07-29T01:52:12;99641.98;;;18.57;75.03
56582;BME280;42463;52.214;21.238;2023-07-29T01:54:18;99642.81;;;18.56;75.03
56582;BME280;42463;52.214;21.238;2023-07-29T01:56:25;99645.79;;;18.54;75.00
56582;BME280;42463;52.214;21.238;2023-07-29T01:58:33;99646.24;;;18.52;74.69
56582;BME280;42463;52.214;21.238;2023-07-29T02:00:40;99647.51;;;18.50;74.65
56582;BME280;42463;52.214;21.238;2023-07-29T02:02:46;99648.35;;;18.48;74.63
56582;BME280;42463;52.214;21.238;2023-07-29T02:04:52;99647.97;;;18.44;74.68
56582;BME280;42463;52.214;21.238;2023-07-29T02:07:00;99650.95;;;18.41;74.57
56582;BME280;42463;52.214;21.238;2023-07-29T02:09:06;99654.21;;;18.38;74.52
56582;BME280;42463;52.214;21.238;2023-07-29T02:11:15;99657.35;;;18.35;74.36
56582;BME280;42463;52.214;21.238;2023-07-29T02:13:21;99659.35;;;18.32;74.42
56582;BME280;42463;52.214;21.238;2023-07-29T02:15:28;99658.77;;;18.30;74.44
56582;BME280;42463;52.214;21.238;2023-07-29T02:17:41;99657.61;;;18.27;74.37
56582;BME280;42463;52.214;21.238;2023-07-29T02:19:51;99657.19;;;18.25;74.30
56582;BME280;42463;52.214;21.238;2023-07-29T02:22:00;99658.52;;;18.23;74.30
56582;BME280;42463;52.214;21.238;2023-07-29T02:24:07;99662.42;;;18.21;74.05
56582;BME280;42463;52.214;21.238;2023-07-29T02:26:12;99662.37;;;18.17;73.96
56582;BME280;42463;52.214;21.238;2023-07-29T02:28:19;99669.11;;;18.14;73.85
56582;BME280;42463;52.214;21.238;2023-07-29T02:30:34;99669.66;;;18.10;73.83
56582;BME280;42463;52.214;21.238;2023-07-29T02:32:45;99667.75;;;18.08;74.17
56582;BME280;42463;52.214;21.238;2023-07-29T02:34:52;99670.27;;;18.07;73.91
56582;BME280;42463;52.214;21.238;2023-07-29T02:36:58;99668.95;;;18.05;73.89
56582;BME280;42463;52.214;21.238;2023-07-29T02:39:05;99671.05;;;18.03;73.75
56582;BME280;42463;52.214;21.238;2023-07-29T02:41:12;99674.60;;;18.02;73.75
56582;BME280;42463;52.214;21.238;2023-07-29T02:43:21;99675.64;;;18.01;73.79
56582;BME280;42463;52.214;21.238;2023-07-29T02:45:27;99676.17;;;17.99;73.62
56582;BME280;42463;52.214;21.238;2023-07-29T02:47:33;99677.09;;;17.98;73.76
56582;BME280;42463;52.214;21.238;2023-07-29T02:49:43;99672.47;;;17.97;73.60
56582;BME280;42463;52.214;21.238;2023-07-29T02:51:49;99673.08;;;17.95;73.58
56582;BME280;42463;52.214;21.238;2023-07-29T02:53:55;99672.46;;;17.93;73.50
56582;BME280;42463;52.214;21.238;2023-07-29T02:56:00;99675.91;;;17.91;73.32
56582;BME280;42463;52.214;21.238;2023-07-29T02:58:06;99675.17;;;17.89;73.42
56582;BME280;42463;52.214;21.238;2023-07-29T03:00:15;99677.88;;;17.86;73.49
56582;BME280;42463;52.214;21.238;2023-07-29T03:02:33;99682.16;;;17.84;73.52
56582;BME280;42463;52.214;21.238;2023-07-29T03:04:53;99683.64;;;17.82;73.64
56582;BME280;42463;52.214;21.238;2023-07-29T03:07:03;99684.87;;;17.82;73.68
56582;BME280;42463;52.214;21.238;2023-07-29T03:09:11;99687.22;;;17.80;73.69
56582;BME280;42463;52.214;21.238;2023-07-29T03:11:21;99690.67;;;17.78;73.70
56582;BME280;42463;52.214;21.238;2023-07-29T03:13:30;99694.09;;;17.76;73.83
56582;BME280;42463;52.214;21.238;2023-07-29T03:15:37;99693.89;;;17.75;74.04
56582;BME280;42463;52.214;21.238;2023-07-29T03:17:43;99695.73;;;17.74;74.17
56582;BME280;42463;52.214;21.238;2023-07-29T03:19:50;99695.11;;;17.73;74.16
56582;BME280;42463;52.214;21.238;2023-07-29T03:22:03;99691.09;;;17.72;74.01
56582;BME280;42463;52.214;21.238;2023-07-29T03:24:11;99692.48;;;17.72;74.16
56582;BME280;42463;52.214;21.238;2023-07-29T03:26:20;99697.14;;;17.71;74.10
56582;BME280;42463;52.214;21.238;2023-07-29T03:28:27;99694.08;;;17.70;74.03
56582;BME280;42463;52.214;21.238;2023-07-29T03:30:33;99694.48;;;17.68;74.06
56582;BME280;42463;52.214;21.238;2023-07-29T03:32:42;99696.40;;;17.68;73.99
56582;BME280;42463;52.214;21.238;2023-07-29T03:34:48;99697.51;;;17.68;73.95
56582;BME280;42463;52.214;21.238;2023-07-29T03:36:54;99695.77;;;17.67;73.96
56582;BME280;42463;52.214;21.238;2023-07-29T03:39:00;99697.47;;;17.66;73.94
56582;BME280;42463;52.214;21.238;2023-07-29T03:41:08;99701.98;;;17.66;73.94
56582;BME280;42463;52.214;21.238;2023-07-29T03:43:14;99703.08;;;17.66;74.00
56582;BME280;42463;52.214;21.238;2023-07-29T03:45:21;99708.50;;;17.67;74.12
56582;BME280;42463;52.214;21.238;2023-07-29T03:47:27;99712.51;;;17.66;74.12
56582;BME280;42463;52.214;21.238;2023-07-29T03:49:33;99712.83;;;17.64;74.15
56582;BME280;42463;52.214;21.238;2023-07-29T03:51:39;99716.56;;;17.64;74.27
56582;BME280;42463;52.214;21.238;2023-07-29T03:53:48;99717.78;;;17.63;74.28
56582;BME280;42463;52.214;21.238;2023-07-29T03:55:54;99717.58;;;17.62;74.39
56582;BME280;42463;52.214;21.238;2023-07-29T03:58:01;99718.55;;;17.63;74.66
56582;BME280;42463;52.214;21.238;2023-07-29T04:00:08;99719.75;;;17.63;74.63
56582;BME280;42463;52.214;21.238;2023-07-29T04:02:19;99721.59;;;17.64;74.68
56582;BME280;42463;52.214;21.238;2023-07-29T04:04:25;99722.10;;;17.67;74.69
56582;BME280;42463;52.214;21.238;2023-07-29T04:06:40;99723.14;;;17.67;74.74
56582;BME280;42463;52.214;21.238;2023-07-29T04:08:46;99724.48;;;17.69;74.88
56582;BME280;42463;52.214;21.238;2023-07-29T04:10:55;99722.55;;;17.71;75.06
56582;BME280;42463;52.214;21.238;2023-07-29T04:13:01;99725.06;;;17.73;75.01
56582;BME280;42463;52.214;21.238;2023-07-29T04:15:08;99725.98;;;17.76;75.07
56582;BME280;42463;52.214;21.238;2023-07-29T04:17:14;99733.64;;;17.79;75.29
56582;BME280;42463;52.214;21.238;2023-07-29T04:19:21;99729.13;;;17.81;75.23
56582;BME280;42463;52.214;21.238;2023-07-29T04:21:27;99729.16;;;17.83;75.39
56582;BME280;42463;52.214;21.238;2023-07-29T04:23:33;99733.34;;;17.87;75.51
56582;BME280;42463;52.214;21.238;2023-07-29T04:25:39;99737.60;;;17.91;75.64
56582;BME280;42463;52.214;21.238;2023-07-29T04:27:45;99738.33;;;17.95;75.60
56582;BME280;42463;52.214;21.238;2023-07-29T04:29:51;99743.31;;;17.99;75.59
56582;BME280;42463;52.214;21.238;2023-07-29T04:31:57;99744.92;;;18.03;75.78
56582;BME280;42463;52.214;21.238;2023-07-29T04:34:03;99745.55;;;18.07;75.87
56582;BME280;42463;52.214;21.238;2023-07-29T04:36:10;99752.44;;;18.11;75.86
56582;BME280;42463;52.214;21.238;2023-07-29T04:38:16;99753.24;;;18.13;75.92
56582;BME280;42463;52.214;21.238;2023-07-29T04:40:23;99750.05;;;18.15;76.06
56582;BME280;42463;52.214;21.238;2023-07-29T04:42:30;99753.55;;;18.18;76.22
56582;BME280;42463;52.214;21.238;2023-07-29T04:44:45;99752.84;;;18.22;76.48
56582;BME280;42463;52.214;21.238;2023-07-29T04:46:50;99755.55;;;18.26;76.53
56582;BME280;42463;52.214;21.238;2023-07-29T04:48:56;99762.46;;;18.31;76.64
56582;BME280;42463;52.214;21.238;2023-07-29T04:51:02;99763.77;;;18.36;76.63
56582;BME280;42463;52.214;21.238;2023-07-29T04:53:08;99769.94;;;18.40;76.74
56582;BME280;42463;52.214;21.238;2023-07-29T04:55:14;99770.60;;;18.44;76.70
56582;BME280;42463;52.214;21.238;2023-07-29T04:57:20;99774.08;;;18.48;76.81
56582;BME280;42463;52.214;21.238;2023-07-29T04:59:25;99774.98;;;18.55;77.17
56582;BME280;42463;52.214;21.238;2023-07-29T05:01:32;99778.91;;;18.61;76.83
56582;BME280;42463;52.214;21.238;2023-07-29T05:03:38;99776.38;;;18.65;76.98
56582;BME280;42463;52.214;21.238;2023-07-29T05:05:45;99782.23;;;18.70;76.83
56582;BME280;42463;52.214;21.238;2023-07-29T05:07:52;99787.05;;;18.76;77.36
56582;BME280;42463;52.214;21.238;2023-07-29T05:09:58;99789.01;;;18.84;77.35
56582;BME280;42463;52.214;21.238;2023-07-29T05:12:05;99795.31;;;18.91;77.06
56582;BME280;42463;52.214;21.238;2023-07-29T05:14:11;99796.66;;;18.95;76.78
56582;BME280;42463;52.214;21.238;2023-07-29T05:16:17;99797.73;;;18.98;76.67
56582;BME280;42463;52.214;21.238;2023-07-29T05:18:26;99801.09;;;19.01;76.75
56582;BME280;42463;52.214;21.238;2023-07-29T05:20:31;99798.65;;;19.03;76.51
56582;BME280;42463;52.214;21.238;2023-07-29T05:22:37;99797.77;;;19.07;76.24
56582;BME280;42463;52.214;21.238;2023-07-29T05:24:43;99797.80;;;19.10;75.95
56582;BME280;42463;52.214;21.238;2023-07-29T05:26:49;99798.90;;;19.13;75.63
56582;BME280;42463;52.214;21.238;2023-07-29T05:28:55;99798.89;;;19.17;75.61
56582;BME280;42463;52.214;21.238;2023-07-29T05:31:03;99797.77;;;19.20;75.27
56582;BME280;42463;52.214;21.238;2023-07-29T05:33:08;99793.99;;;19.22;75.10
56582;BME280;42463;52.214;21.238;2023-07-29T05:35:14;99791.08;;;19.24;74.74
56582;BME280;42463;52.214;21.238;2023-07-29T05:37:22;99791.70;;;19.25;74.32
56582;BME280;42463;52.214;21.238;2023-07-29T05:39:29;99793.27;;;19.25;74.32
56582;BME280;42463;52.214;21.238;2023-07-29T05:41:37;99794.55;;;19.24;74.28
56582;BME280;42463;52.214;21.238;2023-07-29T05:43:44;99800.46;;;19.23;74.26
56582;BME280;42463;52.214;21.238;2023-07-29T05:45:52;99802.83;;;19.19;74.41
56582;BME280;42463;52.214;21.238;2023-07-29T05:47:57;99803.86;;;19.16;74.65
56582;BME280;42463;52.214;21.238;2023-07-29T05:50:04;99795.85;;;19.18;74.76
56582;BME280;42463;52.214;21.238;2023-07-29T05:52:10;99796.20;;;19.20;74.77
56582;BME280;42463;52.214;21.238;2023-07-29T05:54:17;99796.23;;;19.25;74.78
56582;BME280;42463;52.214;21.238;2023-07-29T05:56:23;99791.55;;;19.29;74.92
56582;BME280;42463;52.214;21.238;2023-07-29T05:58:30;99796.05;;;19.33;74.65
56582;BME280;42463;52.214;21.238;2023-07-29T06:00:36;99797.43;;;19.36;74.48
56582;BME280;42463;52.214;21.238;2023-07-29T06:02:42;99803.05;;;19.38;74.36
56582;BME280;42463;52.214;21.238;2023-07-29T06:04:48;99806.46;;;19.41;74.38
56582;BME280;42463;52.214;21.238;2023-07-29T06:06:54;99808.95;;;19.44;74.64
56582;BME280;42463;52.214;21.238;2023-07-29T06:09:00;99811.83;;;19.47;74.39
56582;BME280;42463;52.214;21.238;2023-07-29T06:11:06;99812.40;;;19.50;73.89
56582;BME280;42463;52.214;21.238;2023-07-29T06:13:12;99815.48;;;19.52;73.83
56582;BME280;42463;52.214;21.238;2023-07-29T06:15:20;99818.47;;;19.53;73.77
56582;BME280;42463;52.214;21.238;2023-07-29T06:17:27;99822.21;;;19.56;73.59
56582;BME280;42463;52.214;21.238;2023-07-29T06:19:33;99827.61;;;19.58;73.22
56582;BME280;42463;52.214;21.238;2023-07-29T06:21:38;99833.89;;;19.61;73.33
56582;BME280;42463;52.214;21.238;2023-07-29T06:23:45;99840.45;;;19.62;72.83
56582;BME280;42463;52.214;21.238;2023-07-29T06:25:51;99841.44;;;19.57;72.73
56582;BME280;42463;52.214;21.238;2023-07-29T06:27:56;99841.68;;;19.54;72.70
56582;BME280;42463;52.214;21.238;2023-07-29T06:30:06;99844.31;;;19.52;72.86
56582;BME280;42463;52.214;21.238;2023-07-29T06:32:12;99846.56;;;19.52;73.03
56582;BME280;42463;52.214;21.238;2023-07-29T06:34:18;99846.70;;;19.53;73.16
56582;BME280;42463;52.214;21.238;2023-07-29T06:36:24;99850.90;;;19.54;73.11
56582;BME280;42463;52.214;21.238;2023-07-29T06:38:30;99849.60;;;19.55;73.09
56582;BME280;42463;52.214;21.238;2023-07-29T06:40:36;99852.04;;;19.57;73.12
56582;BME280;42463;52.214;21.238;2023-07-29T06:42:43;99854.21;;;19.60;73.50
56582;BME280;42463;52.214;21.238;2023-07-29T06:44:51;99855.45;;;19.63;73.41
56582;BME280;42463;52.214;21.238;2023-07-29T06:46:58;99858.05;;;19.65;73.31
56582;BME280;42463;52.214;21.238;2023-07-29T06:49:04;99858.80;;;19.68;73.46
56582;BME280;42463;52.214;21.238;2023-07-29T06:51:12;99864.01;;;19.68;73.46
56582;BME280;42463;52.214;21.238;2023-07-29T06:53:17;99860.14;;;19.70;73.36
56582;BME280;42463;52.214;21.238;2023-07-29T06:55:23;99860.89;;;19.71;73.33
56582;BME280;42463;52.214;21.238;2023-07-29T06:57:29;99863.48;;;19.71;73.18
56582;BME280;42463;52.214;21.238;2023-07-29T06:59:36;99861.27;;;19.71;73.46
56582;BME280;42463;52.214;21.238;2023-07-29T07:01:42;99860.63;;;19.72;73.63
56582;BME280;42463;52.214;21.238;2023-07-29T07:03:47;99858.45;;;19.74;73.63
56582;BME280;42463;52.214;21.238;2023-07-29T07:05:56;99854.73;;;19.77;73.71
56582;BME280;42463;52.214;21.238;2023-07-29T07:08:03;99857.32;;;19.81;73.69
56582;BME280;42463;52.214;21.238;2023-07-29T07:10:10;99857.94;;;19.84;73.61
56582;BME280;42463;52.214;21.238;2023-07-29T07:12:16;99856.10;;;19.87;73.54
56582;BME280;42463;52.214;21.238;2023-07-29T07:14:21;99859.58;;;19.92;73.54
56582;BME280;42463;52.214;21.238;2023-07-29T07:16:27;99857.53;;;19.95;73.36
56582;BME280;42463;52.214;21.238;2023-07-29T07:18:34;99859.23;;;19.96;73.01
56582;BME280;42463;52.214;21.238;2023-07-29T07:20:40;99857.14;;;19.95;72.53
56582;BME280;42463;52.214;21.238;2023-07-29T07:22:45;99858.52;;;19.98;72.68
56582;BME280;42463;52.214;21.238;2023-07-29T07:24:54;99855.33;;;20.01;71.97
56582;BME280;42463;52.214;21.238;2023-07-29T07:27:00;99856.95;;;20.02;71.72
56582;BME280;42463;52.214;21.238;2023-07-29T07:29:06;99854.14;;;20.06;71.48
56582;BME280;42463;52.214;21.238;2023-07-29T07:31:12;99855.02;;;20.13;71.63
56582;BME280;42463;52.214;21.238;2023-07-29T07:33:17;99856.04;;;20.15;71.39
56582;BME280;42463;52.214;21.238;2023-07-29T07:35:23;99853.38;;;20.19;71.81
56582;BME280;42463;52.214;21.238;2023-07-29T07:37:29;99853.56;;;20.23;71.91
56582;BME280;42463;52.214;21.238;2023-07-29T07:39:34;99851.58;;;20.25;71.62
56582;BME280;42463;52.214;21.238;2023-07-29T07:41:40;99852.08;;;20.25;70.88
56582;BME280;42463;52.214;21.238;2023-07-29T07:43:46;99848.63;;;20.26;71.36
56582;BME280;42463;52.214;21.238;2023-07-29T07:45:56;99846.81;;;20.32;71.90
56582;BME280;42463;52.214;21.238;2023-07-29T07:48:03;99852.59;;;20.34;70.77
56582;BME280;42463;52.214;21.238;2023-07-29T07:50:09;99853.40;;;20.29;70.46
56582;BME280;42463;52.214;21.238;2023-07-29T07:52:15;99855.17;;;20.32;70.78
56582;BME280;42463;52.214;21.238;2023-07-29T07:54:22;99854.41;;;20.33;70.23
56582;BME280;42463;52.214;21.238;2023-07-29T07:56:28;99855.34;;;20.36;70.26
56582;BME280;42463;52.214;21.238;2023-07-29T07:58:34;99853.06;;;20.44;70.77
56582;BME280;42463;52.214;21.238;2023-07-29T08:00:40;99855.55;;;20.53;70.77
56582;BME280;42463;52.214;21.238;2023-07-29T08:02:46;99854.64;;;20.64;70.67
56582;BME280;42463;52.214;21.238;2023-07-29T08:04:51;99855.89;;;20.74;70.13
56582;BME280;42463;52.214;21.238;2023-07-29T08:06:57;99854.92;;;20.73;68.82
56582;BME280;42463;52.214;21.238;2023-07-29T08:09:03;99858.02;;;20.72;68.84
56582;BME280;42463;52.214;21.238;2023-07-29T08:11:09;99855.23;;;20.71;68.91
56582;BME280;42463;52.214;21.238;2023-07-29T08:13:15;99851.26;;;20.75;69.34
56582;BME280;42463;52.214;21.238;2023-07-29T08:15:21;99852.85;;;20.82;69.37
56582;BME280;42463;52.214;21.238;2023-07-29T08:17:26;99850.27;;;20.87;69.38
56582;BME280;42463;52.214;21.238;2023-07-29T08:19:32;99848.45;;;20.93;69.19
56582;BME280;42463;52.214;21.238;2023-07-29T08:21:39;99847.95;;;21.01;69.15
56582;BME280;42463;52.214;21.238;2023-07-29T08:23:45;99846.20;;;21.11;68.73
56582;BME280;42463;52.214;21.238;2023-07-29T08:25:56;99845.48;;;21.20;67.79
56582;BME280;42463;52.214;21.238;2023-07-29T08:28:06;99848.64;;;21.28;67.67
56582;BME280;42463;52.214;21.238;2023-07-29T08:30:13;99846.92;;;21.37;67.74
56582;BME280;42463;52.214;21.238;2023-07-29T08:32:20;99846.61;;;21.46;67.41
56582;BME280;42463;52.214;21.238;2023-07-29T08:34:26;99846.77;;;21.55;67.48
56582;BME280;42463;52.214;21.238;2023-07-29T08:36:33;99845.29;;;21.63;67.14
56582;BME280;42463;52.214;21.238;2023-07-29T08:38:39;99845.73;;;21.61;65.00
56582;BME280;42463;52.214;21.238;2023-07-29T08:41:13;99844.66;;;21.58;64.55
56582;BME280;42463;52.214;21.238;2023-07-29T08:43:20;99843.59;;;21.61;64.57
56582;BME280;42463;52.214;21.238;2023-07-29T08:45:31;99845.70;;;21.63;64.14
56582;BME280;42463;52.214;21.238;2023-07-29T08:47:39;99839.71;;;21.68;64.12
56582;BME280;42463;52.214;21.238;2023-07-29T08:49:46;99836.88;;;21.75;64.57
56582;BME280;42463;52.214;21.238;2023-07-29T08:51:55;99835.73;;;21.83;64.32
56582;BME280;42463;52.214;21.238;2023-07-29T08:54:03;99837.84;;;21.91;64.11
56582;BME280;42463;52.214;21.238;2023-07-29T08:56:09;99838.24;;;22.01;64.15
56582;BME280;42463;52.214;21.238;2023-07-29T08:58:18;99837.58;;;22.09;63.68
56582;BME280;42463;52.214;21.238;2023-07-29T09:00:24;99833.04;;;22.15;64.27
56582;BME280;42463;52.214;21.238;2023-07-29T09:02:31;99837.58;;;22.21;63.70
56582;BME280;42463;52.214;21.238;2023-07-29T09:04:37;99841.39;;;22.26;62.51
56582;BME280;42463;52.214;21.238;2023-07-29T09:06:47;99844.15;;;22.32;62.44
56582;BME280;42463;52.214;21.238;2023-07-29T09:08:56;99840.74;;;22.34;61.91
56582;BME280;42463;52.214;21.238;2023-07-29T09:11:03;99841.98;;;22.36;62.58
56582;BME280;42463;52.214;21.238;2023-07-29T09:13:09;99843.45;;;22.37;63.24
56582;BME280;42463;52.214;21.238;2023-07-29T09:15:27;99836.50;;;22.42;63.44
56582;BME280;42463;52.214;21.238;2023-07-29T09:17:35;99833.66;;;22.50;63.13
56582;BME280;42463;52.214;21.238;2023-07-29T09:19:41;99827.18;;;22.55;61.31
56582;BME280;42463;52.214;21.238;2023-07-29T09:21:47;99831.71;;;22.58;61.01
56582;BME280;42463;52.214;21.238;2023-07-29T09:23:53;99836.61;;;22.64;60.65
56582;BME280;42463;52.214;21.238;2023-07-29T09:26:03;99840.77;;;22.71;60.40
56582;BME280;42463;52.214;21.238;2023-07-29T09:28:14;99843.80;;;22.74;59.53
56582;BME280;42463;52.214;21.238;2023-07-29T09:30:21;99841.31;;;22.80;59.43
56582;BME280;42463;52.214;21.238;2023-07-29T09:32:27;99838.03;;;22.87;58.65
56582;BME280;42463;52.214;21.238;2023-07-29T09:34:42;99841.52;;;22.89;57.69
56582;BME280;42463;52.214;21.238;2023-07-29T09:36:51;99842.75;;;22.90;58.74
56582;BME280;42463;52.214;21.238;2023-07-29T09:38:57;99841.54;;;22.89;57.38
56582;BME280;42463;52.214;21.238;2023-07-29T09:41:03;99833.91;;;22.93;57.24
56582;BME280;42463;52.214;21.238;2023-07-29T09:43:10;99833.32;;;22.98;56.93
56582;BME280;42463;52.214;21.238;2023-07-29T09:45:23;99829.77;;;23.06;56.83
56582;BME280;42463;52.214;21.238;2023-07-29T09:47:29;99825.52;;;23.12;56.27
56582;BME280;42463;52.214;21.238;2023-07-29T09:49:38;99820.73;;;23.16;56.49
56582;BME280;42463;52.214;21.238;2023-07-29T09:51:45;99818.31;;;23.20;56.64
56582;BME280;42463;52.214;21.238;2023-07-29T09:53:51;99816.27;;;23.23;55.55
56582;BME280;42463;52.214;21.238;2023-07-29T09:56:00;99818.58;;;23.27;54.76
56582;BME280;42463;52.214;21.238;2023-07-29T09:58:05;99816.38;;;23.33;54.65
56582;BME280;42463;52.214;21.238;2023-07-29T10:00:14;99813.30;;;23.40;54.12
56582;BME280;42463;52.214;21.238;2023-07-29T10:02:20;99816.50;;;23.50;54.84
56582;BME280;42463;52.214;21.238;2023-07-29T10:04:27;99812.29;;;23.57;54.24
56582;BME280;42463;52.214;21.238;2023-07-29T10:06:36;99808.52;;;23.64;54.27
56582;BME280;42463;52.214;21.238;2023-07-29T10:08:43;99809.67;;;23.69;54.38
56582;BME280;42463;52.214;21.238;2023-07-29T10:10:51;99806.13;;;23.73;53.14
56582;BME280;42463;52.214;21.238;2023-07-29T10:12:57;99803.75;;;23.79;52.33
56582;BME280;42463;52.214;21.238;2023-07-29T10:15:06;99803.71;;;23.88;52.84
56582;BME280;42463;52.214;21.238;2023-07-29T10:17:13;99807.33;;;23.95;53.51
56582;BME280;42463;52.214;21.238;2023-07-29T10:19:21;99808.73;;;24.03;54.06
56582;BME280;42463;52.214;21.238;2023-07-29T10:21:30;99805.11;;;24.14;54.05
56582;BME280;42463;52.214;21.238;2023-07-29T10:23:44;99803.80;;;24.27;52.96
56582;BME280;42463;52.214;21.238;2023-07-29T10:25:57;99804.08;;;24.37;51.51
56582;BME280;42463;52.214;21.238;2023-07-29T10:28:09;99799.54;;;24.40;50.02
56582;BME280;42463;52.214;21.238;2023-07-29T10:30:20;99798.63;;;24.44;49.80
56582;BME280;42463;52.214;21.238;2023-07-29T10:32:28;99805.03;;;24.52;50.70
56582;BME280;42463;52.214;21.238;2023-07-29T10:34:35;99802.88;;;24.55;49.53
56582;BME280;42463;52.214;21.238;2023-07-29T10:36:44;99799.12;;;24.60;49.48
56582;BME280;42463;52.214;21.238;2023-07-29T10:38:52;99800.70;;;24.68;48.92
56582;BME280;42463;52.214;21.238;2023-07-29T10:40:59;99800.64;;;24.72;49.62
56582;BME280;42463;52.214;21.238;2023-07-29T10:43:11;99799.73;;;24.78;49.28
56582;BME280;42463;52.214;21.238;2023-07-29T10:45:24;99795.74;;;24.84;48.72
56582;BME280;42463;52.214;21.238;2023-07-29T10:47:30;99792.33;;;24.88;48.13
56582;BME280;42463;52.214;21.238;2023-07-29T10:49:38;99793.90;;;24.91;48.61
56582;BME280;42463;52.214;21.238;2023-07-29T10:51:45;99791.66;;;24.94;49.78
56582;BME280;42463;52.214;21.238;2023-07-29T10:53:54;99793.58;;;24.98;49.85
56582;BME280;42463;52.214;21.238;2023-07-29T10:56:01;99791.35;;;25.03;50.17
56582;BME280;42463;52.214;21.238;2023-07-29T10:58:11;99786.08;;;25.10;50.59
56582;BME280;42463;52.214;21.238;2023-07-29T11:00:20;99784.27;;;25.19;50.54
56582;BME280;42463;52.214;21.238;2023-07-29T11:02:31;99786.09;;;25.27;50.02
56582;BME280;42463;52.214;21.238;2023-07-29T11:04:47;99780.41;;;25.33;49.92
56582;BME280;42463;52.214;21.238;2023-07-29T11:07:21;99777.36;;;25.35;50.06
56582;BME280;42463;52.214;21.238;2023-07-29T11:09:45;99780.67;;;25.39;48.96